createdAt,value
2023-03-28T00:02:04.640Z,4.75
2023-03-28T00:04:31.811Z,4.05
2023-03-28T00:06:58.232Z,3.00
2023-03-28T00:09:26.010Z,2.97
2023-03-28T00:11:52.545Z,4.25
2023-03-28T00:14:18.988Z,3.05
2023-03-28T00:16:48.523Z,4.68
2023-03-28T00:19:15.673Z,4.32
2023-03-28T00:21:43.093Z,5.18
2023-03-28T00:24:11.069Z,4.78
2023-03-28T00:26:37.464Z,3.65
2023-03-28T00:29:04.165Z,3.87
2023-03-28T00:31:30.808Z,7.97
2023-03-28T00:33:57.709Z,5.87
2023-03-28T00:36:26.704Z,4.37
2023-03-28T00:38:54.009Z,4.12
2023-03-28T00:41:22.027Z,3.40
2023-03-28T00:43:48.577Z,3.75
2023-03-28T00:46:15.415Z,3.42
2023-03-28T00:48:42.069Z,5.40
2023-03-28T00:51:08.666Z,2.60
2023-03-28T00:53:36.437Z,6.15
2023-03-28T00:56:03.174Z,6.65
2023-03-28T00:58:29.630Z,5.20
2023-03-28T01:00:56.055Z,7.05
2023-03-28T01:03:23.441Z,6.07
2023-03-28T01:05:50.008Z,4.87
2023-03-28T01:08:17.034Z,4.22
2023-03-28T01:10:43.481Z,4.82
2023-03-28T01:13:09.906Z,4.00
2023-03-28T01:15:36.449Z,4.93
2023-03-28T01:18:03.345Z,2.55
2023-03-28T01:20:30.015Z,5.18
2023-03-28T01:22:58.094Z,4.40
2023-03-28T01:25:24.795Z,3.22
2023-03-28T01:27:52.392Z,3.12
2023-03-28T01:30:18.809Z,4.50
2023-03-28T01:32:45.259Z,3.90
2023-03-28T01:35:11.732Z,4.62
2023-03-28T01:37:38.156Z,4.10
2023-03-28T01:40:08.084Z,2.85
2023-03-28T01:42:34.510Z,4.32
2023-03-28T01:45:01.179Z,6.78
2023-03-28T01:47:27.853Z,3.60
2023-03-28T01:49:55.612Z,2.83
2023-03-28T01:52:22.051Z,5.12
2023-03-28T01:54:48.513Z,3.37
2023-03-28T01:57:15.032Z,4.32
2023-03-28T01:59:41.560Z,3.15
2023-03-28T02:02:08.051Z,3.65
2023-03-28T02:04:35.525Z,5.40
2023-03-28T02:07:02.206Z,6.22
2023-03-28T02:09:28.632Z,6.25
2023-03-28T02:11:55.074Z,4.12
2023-03-28T02:14:21.525Z,5.70
2023-03-28T02:16:50.267Z,5.57
2023-03-28T02:19:16.832Z,7.70
2023-03-28T02:21:43.743Z,4.50
2023-03-28T02:24:10.177Z,6.22
2023-03-28T02:26:37.379Z,5.43
2023-03-28T02:29:03.805Z,6.18
2023-03-28T02:31:30.334Z,4.68
2023-03-28T02:33:58.997Z,4.10
2023-03-28T02:36:25.782Z,5.53
2023-03-28T02:38:52.208Z,4.47
2023-03-28T02:41:18.635Z,5.47
2023-03-28T02:43:45.178Z,7.07
2023-03-28T02:46:11.614Z,7.22
2023-03-28T02:48:38.123Z,5.87
2023-03-28T02:51:04.586Z,6.05
2023-03-28T02:53:33.016Z,9.38
2023-03-28T02:55:59.601Z,4.62
2023-03-28T02:58:26.583Z,10.15
2023-03-28T03:00:53.021Z,6.05
2023-03-28T03:03:19.521Z,4.50
2023-03-28T03:05:45.944Z,6.45
2023-03-28T03:08:12.403Z,8.65
2023-03-28T03:10:38.814Z,8.20
2023-03-28T03:13:05.226Z,6.22
2023-03-28T03:15:31.739Z,5.30
2023-03-28T03:17:58.920Z,5.60
2023-03-28T03:20:28.750Z,4.97
2023-03-28T03:22:55.243Z,4.62
2023-03-28T03:25:21.831Z,7.97
2023-03-28T03:27:48.275Z,10.55
2023-03-28T03:30:14.828Z,9.93
2023-03-28T03:32:41.525Z,6.07
2023-03-28T03:35:07.966Z,7.87
2023-03-28T03:37:34.390Z,5.30
2023-03-28T03:40:00.951Z,3.05
2023-03-28T03:42:27.385Z,4.43
2023-03-28T03:44:54.641Z,4.55
2023-03-28T03:47:21.087Z,2.10
2023-03-28T03:49:47.512Z,2.17
2023-03-28T03:52:13.969Z,4.22
2023-03-28T03:54:40.468Z,3.33
2023-03-28T03:57:06.988Z,3.45
2023-03-28T03:59:33.498Z,2.60
2023-03-28T04:02:00.179Z,2.35
2023-03-28T04:04:27.480Z,3.03
2023-03-28T04:06:54.276Z,5.10
2023-03-28T04:09:22.709Z,6.45
2023-03-28T04:11:49.170Z,5.62
2023-03-28T04:14:15.621Z,4.15
2023-03-28T04:16:42.148Z,6.30
2023-03-28T04:19:08.635Z,5.47
2023-03-28T04:21:35.552Z,3.83
2023-03-28T04:24:02.083Z,2.53
2023-03-28T04:26:28.554Z,2.75
2023-03-28T04:28:55.237Z,2.67
2023-03-28T04:31:22.147Z,3.08
2023-03-28T04:33:48.602Z,4.95
2023-03-28T04:36:17.056Z,3.20
2023-03-28T04:38:46.007Z,3.97
2023-03-28T04:41:12.440Z,2.15
2023-03-28T04:43:38.858Z,4.12
2023-03-28T04:46:05.338Z,3.12
2023-03-28T04:48:31.799Z,3.28
2023-03-28T04:50:58.275Z,2.85
2023-03-28T04:53:24.721Z,3.90
2023-03-28T04:55:51.360Z,3.80
2023-03-28T04:58:17.784Z,2.75
2023-03-28T05:00:44.449Z,2.42
2023-03-28T05:03:12.849Z,5.03
2023-03-28T05:05:39.633Z,7.20
2023-03-28T05:08:06.061Z,2.67
2023-03-28T05:10:32.464Z,2.55
2023-03-28T05:12:58.944Z,3.72
2023-03-28T05:15:25.346Z,5.70
2023-03-28T05:17:51.812Z,1.92
2023-03-28T05:20:19.809Z,4.62
2023-03-28T05:22:46.355Z,11.95
2023-03-28T05:25:12.813Z,1.55
2023-03-28T05:27:39.250Z,1.90
2023-03-28T05:30:05.723Z,4.97
2023-03-28T05:32:32.149Z,4.25
2023-03-28T05:34:58.638Z,3.97
2023-03-28T05:37:25.079Z,3.70
2023-03-28T05:39:55.145Z,6.12
2023-03-28T05:42:21.743Z,6.87
2023-03-28T05:44:48.189Z,5.60
2023-03-28T05:47:14.656Z,5.53
2023-03-28T05:49:41.223Z,3.35
2023-03-28T05:52:07.727Z,4.93
2023-03-28T05:54:34.152Z,3.28
2023-03-28T05:57:00.801Z,2.55
2023-03-28T05:59:27.280Z,4.75
2023-03-28T06:01:53.723Z,2.67
2023-03-28T06:04:21.952Z,2.55
2023-03-28T06:06:48.924Z,4.30
2023-03-28T06:09:15.712Z,4.72
2023-03-28T06:11:42.167Z,4.47
2023-03-28T06:14:08.602Z,5.75
2023-03-28T06:16:35.087Z,6.28
2023-03-28T06:19:14.434Z,4.30
2023-03-28T06:21:44.047Z,3.15
2023-03-28T06:24:10.582Z,4.07
2023-03-28T06:29:08.289Z,3.95
2023-03-28T06:31:34.759Z,5.55
2023-03-28T06:34:01.215Z,5.28
2023-03-28T06:36:27.644Z,3.78
2023-03-28T06:38:55.063Z,4.40
2023-03-28T06:41:21.540Z,3.33
2023-03-28T06:43:47.967Z,5.05
2023-03-28T06:46:16.399Z,2.97
2023-03-28T06:48:42.852Z,3.00
2023-03-28T06:51:09.284Z,5.57
2023-03-28T06:53:38.839Z,4.60
2023-03-28T06:56:06.691Z,3.95
2023-03-28T06:58:33.208Z,1.92
2023-03-28T07:00:59.869Z,4.97
2023-03-28T07:03:26.861Z,3.83
2023-03-28T07:05:53.349Z,2.08
2023-03-28T07:08:19.777Z,5.12
2023-03-28T07:10:46.312Z,3.92
2023-03-28T07:13:12.784Z,2.87
2023-03-28T07:15:39.232Z,4.05
2023-03-28T07:18:06.710Z,3.12
2023-03-28T07:20:33.168Z,3.87
2023-03-28T07:22:59.577Z,2.20
2023-03-28T07:25:26.227Z,3.78
2023-03-28T07:27:52.637Z,2.40
2023-03-28T07:30:19.048Z,2.08
2023-03-28T07:35:14.945Z,3.40
2023-03-28T07:37:41.373Z,5.35
2023-03-28T07:40:07.960Z,3.17
2023-03-28T07:42:34.518Z,3.92
2023-03-28T07:45:00.952Z,4.70
2023-03-28T07:47:27.399Z,2.33
2023-03-28T07:49:53.850Z,4.07
2023-03-28T07:52:20.947Z,3.65
2023-03-28T07:54:47.394Z,2.20
2023-03-28T07:57:13.915Z,3.85
2023-03-28T07:59:40.354Z,4.47
2023-03-28T08:02:06.823Z,3.70
2023-03-28T08:04:33.571Z,4.78
2023-03-28T08:07:00.522Z,2.75
2023-03-28T08:09:26.957Z,2.35
2023-03-28T08:11:53.386Z,4.32
2023-03-28T08:14:19.846Z,1.90
2023-03-28T08:16:46.321Z,4.30
2023-03-28T08:19:12.752Z,1.85
2023-03-28T08:21:39.215Z,1.55
2023-03-28T08:24:05.949Z,2.33
2023-03-28T08:26:32.456Z,3.15
2023-03-28T08:28:59.197Z,3.92
2023-03-28T08:31:27.018Z,3.45
2023-03-28T08:33:53.456Z,2.20
2023-03-28T08:36:19.900Z,3.70
2023-03-28T08:38:46.797Z,3.30
2023-03-28T08:41:13.216Z,1.83
2023-03-28T08:43:39.655Z,3.40
2023-03-28T08:46:06.244Z,2.53
2023-03-28T08:48:32.662Z,2.22
2023-03-28T08:50:59.260Z,1.83
2023-03-28T08:53:26.671Z,2.20
2023-03-28T08:55:53.865Z,1.87
2023-03-28T08:58:23.518Z,4.18
2023-03-28T09:00:50.062Z,2.05
2023-03-28T09:03:16.555Z,2.87
2023-03-28T09:05:43.099Z,3.25
2023-03-28T09:08:09.587Z,2.28
2023-03-28T09:10:36.121Z,2.03
2023-03-28T09:13:02.528Z,2.22
2023-03-28T09:15:29.024Z,1.70
2023-03-28T09:17:55.457Z,3.80
2023-03-28T09:20:22.181Z,1.77
2023-03-28T09:22:48.608Z,2.50
2023-03-28T09:25:15.115Z,1.40
2023-03-28T09:27:41.536Z,1.62
2023-03-28T09:30:07.965Z,2.03
2023-03-28T09:32:34.519Z,1.05
2023-03-28T09:35:00.951Z,1.20
2023-03-28T09:37:27.380Z,1.52
2023-03-28T09:39:54.041Z,1.42
2023-03-28T09:42:20.512Z,1.75
2023-03-28T09:44:54.249Z,2.47
2023-03-28T09:47:21.596Z,0.90
2023-03-28T09:49:49.586Z,1.35
2023-03-28T09:52:18.857Z,2.05
2023-03-28T09:54:45.429Z,1.35
2023-03-28T09:57:11.902Z,1.65
2023-03-28T09:59:38.424Z,1.00
2023-03-28T10:07:08.401Z,1.45
2023-03-28T10:09:34.827Z,1.30
2023-03-28T10:12:02.391Z,2.12
2023-03-28T10:14:28.813Z,2.08
2023-03-28T10:16:55.255Z,0.98
2023-03-28T10:19:21.708Z,2.22
2023-03-28T10:21:48.138Z,1.00
2023-03-28T10:24:15.764Z,2.90
2023-03-28T10:26:42.310Z,1.37
2023-03-28T10:29:08.863Z,1.10
2023-03-28T10:31:35.391Z,1.35
2023-03-28T10:34:02.890Z,0.80
2023-03-28T10:36:29.468Z,1.75
2023-03-28T10:38:57.071Z,1.92
2023-03-28T10:41:25.850Z,2.28
2023-03-28T10:43:52.448Z,3.00
2023-03-28T10:46:19.172Z,2.37
2023-03-28T10:48:45.775Z,1.27
2023-03-28T10:51:12.197Z,0.93
2023-03-28T10:53:38.661Z,2.90
2023-03-28T10:56:05.088Z,1.60
2023-03-28T10:58:31.716Z,1.42
2023-03-28T11:00:58.365Z,1.45
2023-03-28T11:03:24.992Z,0.77
2023-03-28T11:06:05.772Z,1.75
2023-03-28T11:08:34.830Z,1.90
2023-03-28T11:11:01.449Z,1.00
2023-03-28T11:13:28.078Z,0.80
2023-03-28T11:15:54.821Z,1.33
2023-03-28T11:18:21.476Z,0.85
2023-03-28T11:20:47.914Z,0.70
2023-03-28T11:23:14.332Z,1.00
2023-03-28T11:25:40.789Z,2.53
2023-03-28T11:28:07.342Z,1.10
2023-03-28T11:30:33.824Z,1.35
2023-03-28T11:33:00.399Z,1.23
2023-03-28T11:35:27.695Z,2.37
2023-03-28T11:37:54.145Z,0.75
2023-03-28T11:40:20.601Z,1.37
2023-03-28T11:42:47.254Z,2.05
2023-03-28T11:45:13.851Z,1.67
2023-03-28T11:47:40.378Z,3.22
2023-03-28T11:50:07.246Z,1.12
2023-03-28T11:52:35.629Z,2.05
2023-03-28T11:55:03.338Z,1.45
2023-03-28T11:57:30.059Z,1.10
2023-03-28T11:59:56.531Z,2.37
2023-03-28T12:02:23.638Z,1.35
2023-03-28T12:04:50.092Z,1.33
2023-03-28T12:07:17.258Z,1.30
2023-03-28T12:09:44.581Z,3.78
2023-03-28T12:12:11.097Z,0.95
2023-03-28T12:14:37.642Z,1.33
2023-03-28T12:17:04.213Z,2.03
2023-03-28T12:19:30.958Z,1.48
2023-03-28T12:21:59.088Z,1.45
2023-03-28T12:24:25.534Z,1.12
2023-03-28T12:26:54.197Z,1.00
2023-03-28T12:29:22.396Z,1.35
2023-03-28T12:31:48.921Z,1.92
2023-03-28T12:34:15.448Z,1.73
2023-03-28T12:36:41.868Z,1.05
2023-03-28T12:39:08.951Z,3.22
2023-03-28T12:41:35.367Z,4.32
2023-03-28T12:44:01.824Z,0.95
2023-03-28T12:46:28.344Z,1.67
2023-03-28T12:48:54.839Z,1.92
2023-03-28T12:51:21.448Z,1.50
2023-03-28T12:53:47.873Z,2.53
2023-03-28T12:56:14.328Z,1.42
2023-03-28T12:58:41.077Z,2.97
2023-03-28T13:01:07.947Z,2.80
2023-03-28T13:03:35.206Z,4.43
2023-03-28T13:06:01.872Z,3.50
2023-03-28T13:08:28.467Z,1.85
2023-03-28T13:10:54.888Z,2.83
2023-03-28T13:13:21.373Z,4.75
2023-03-28T13:15:47.832Z,3.35
2023-03-28T13:18:14.268Z,3.85
2023-03-28T13:20:40.933Z,2.22
2023-03-28T13:23:07.376Z,1.80
2023-03-28T13:25:33.821Z,1.65
2023-03-28T13:28:01.070Z,3.60
2023-03-28T13:30:27.910Z,2.75
2023-03-28T13:32:54.504Z,2.40
2023-03-28T13:35:20.932Z,3.35
2023-03-28T13:37:47.392Z,1.62
2023-03-28T13:40:13.832Z,2.53
2023-03-28T13:42:40.274Z,2.10
2023-03-28T13:45:06.758Z,4.82
2023-03-28T13:47:33.227Z,5.30
2023-03-28T13:49:59.669Z,3.03
2023-03-28T13:52:26.154Z,4.97
2023-03-28T13:54:55.835Z,3.28
2023-03-28T13:57:22.381Z,4.87
2023-03-28T13:59:48.837Z,1.83
2023-03-28T14:02:15.296Z,1.98
2023-03-28T14:04:41.820Z,1.77
2023-03-28T14:07:08.260Z,4.10
2023-03-28T14:09:34.732Z,3.22
2023-03-28T14:12:01.211Z,3.25
2023-03-28T14:14:27.695Z,3.42
2023-03-28T14:16:54.159Z,3.53
2023-03-28T14:19:21.882Z,3.92
2023-03-28T14:21:48.455Z,3.37
2023-03-28T14:24:14.875Z,3.37
2023-03-28T14:26:41.708Z,3.55
2023-03-28T14:29:08.136Z,6.00
2023-03-28T14:31:34.683Z,2.87
2023-03-28T14:34:01.137Z,3.05
2023-03-28T14:36:31.322Z,4.20
2023-03-28T14:38:57.858Z,2.53
2023-03-28T14:41:29.430Z,2.97
2023-03-28T14:43:56.160Z,3.83
2023-03-28T14:46:22.689Z,1.73
2023-03-28T14:48:53.771Z,4.03
2023-03-28T14:51:20.269Z,3.42
2023-03-28T14:53:47.752Z,3.92
2023-03-28T14:56:15.307Z,3.65
2023-03-28T14:58:41.906Z,4.80
2023-03-28T15:01:08.422Z,3.37
2023-03-28T15:03:35.319Z,4.07
2023-03-28T15:06:01.894Z,2.67
2023-03-28T15:08:28.900Z,4.85
2023-03-28T15:10:55.402Z,4.15
2023-03-28T15:13:23.357Z,2.47
2023-03-28T15:15:49.965Z,3.30
2023-03-28T15:18:16.830Z,2.83
2023-03-28T15:20:43.385Z,4.30
2023-03-28T15:23:09.803Z,3.40
2023-03-28T15:25:36.888Z,4.62
2023-03-28T15:28:03.306Z,2.33
2023-03-28T15:30:33.061Z,3.15
2023-03-28T15:32:59.764Z,4.68
2023-03-28T15:35:26.707Z,2.62
2023-03-28T15:37:53.121Z,4.30
2023-03-28T15:40:19.586Z,4.55
2023-03-28T15:42:46.016Z,2.15
2023-03-28T15:45:12.477Z,4.05
2023-03-28T15:47:38.963Z,3.03
2023-03-28T15:50:05.399Z,3.03
2023-03-28T15:52:31.861Z,2.97
2023-03-28T15:54:58.300Z,3.40
2023-03-28T15:57:24.762Z,5.57
2023-03-28T15:59:56.304Z,3.47
2023-03-28T16:02:22.916Z,4.28
2023-03-28T16:04:49.407Z,4.12
2023-03-28T16:07:16.122Z,7.05
2023-03-28T16:09:45.067Z,2.95
2023-03-28T16:12:11.485Z,6.43
2023-03-28T16:14:37.977Z,4.07
2023-03-28T16:17:04.386Z,3.53
2023-03-28T16:19:34.054Z,2.60
2023-03-28T16:22:01.312Z,4.50
2023-03-28T16:24:27.912Z,3.00
2023-03-28T16:26:54.350Z,3.25
2023-03-28T16:29:21.281Z,3.53
2023-03-28T16:31:47.895Z,4.82
2023-03-28T16:34:14.335Z,3.85
2023-03-28T16:36:40.782Z,3.25
2023-03-28T16:39:08.490Z,5.68
2023-03-28T16:41:35.052Z,6.22
2023-03-28T16:44:01.463Z,2.28
2023-03-28T16:46:27.917Z,3.42
2023-03-28T16:48:54.412Z,4.78
2023-03-28T16:51:20.870Z,5.68
2023-03-28T16:53:48.384Z,6.25
2023-03-28T16:56:15.611Z,4.85
2023-03-28T16:58:42.101Z,4.35
2023-03-28T17:01:08.744Z,3.72
2023-03-28T17:03:35.433Z,4.65
2023-03-28T17:06:02.137Z,3.62
2023-03-28T17:08:28.661Z,3.92
2023-03-28T17:10:55.157Z,5.00
2023-03-28T17:13:21.876Z,6.37
2023-03-28T17:15:48.290Z,6.65
2023-03-28T17:18:14.775Z,4.80
2023-03-28T17:20:41.251Z,7.25
2023-03-28T17:23:07.802Z,5.90
2023-03-28T17:25:39.186Z,4.32
2023-03-28T17:28:14.953Z,6.37
2023-03-28T17:30:41.679Z,6.12
2023-03-28T17:33:08.275Z,4.22
2023-03-28T17:35:34.957Z,4.95
2023-03-28T17:38:01.392Z,5.15
2023-03-28T17:40:33.012Z,5.68
2023-03-28T17:42:59.423Z,4.78
2023-03-28T17:45:26.468Z,8.13
2023-03-28T17:47:55.926Z,4.37
2023-03-28T17:50:22.629Z,5.53
2023-03-28T17:52:49.120Z,2.95
2023-03-28T17:55:15.839Z,5.90
2023-03-28T17:57:42.422Z,7.00
2023-03-28T18:00:09.799Z,3.78
2023-03-28T18:02:38.542Z,5.12
2023-03-28T18:05:05.141Z,4.55
2023-03-28T18:07:31.744Z,7.22
2023-03-28T18:09:59.485Z,3.60
2023-03-28T18:12:25.930Z,6.50
2023-03-28T18:14:52.370Z,4.50
2023-03-28T18:17:20.242Z,6.18
2023-03-28T18:19:46.752Z,4.07
2023-03-28T18:22:13.191Z,3.28
2023-03-28T18:24:39.811Z,7.12
2023-03-28T18:27:06.235Z,5.30
2023-03-28T18:29:33.364Z,5.68
2023-03-28T18:31:59.947Z,3.75
2023-03-28T18:34:27.215Z,4.35
2023-03-28T18:36:55.760Z,3.50
2023-03-28T18:39:24.531Z,4.75
2023-03-28T18:41:51.359Z,6.25
2023-03-28T18:44:18.144Z,7.37
2023-03-28T18:46:44.691Z,6.68
2023-03-28T18:49:11.139Z,4.60
2023-03-28T18:51:38.356Z,4.90
2023-03-28T18:54:04.773Z,5.90
2023-03-28T18:56:33.017Z,6.43
2023-03-28T18:58:59.454Z,7.30
2023-03-28T19:01:26.680Z,6.70
2023-03-28T19:03:53.437Z,8.68
2023-03-28T19:06:19.981Z,9.50
2023-03-28T19:08:47.651Z,12.00
2023-03-28T19:11:14.243Z,9.77
2023-03-28T19:13:41.176Z,8.45
2023-03-28T19:16:07.980Z,8.15
2023-03-28T19:18:34.465Z,10.40
2023-03-28T19:21:01.292Z,10.05
2023-03-28T19:23:28.108Z,10.15
2023-03-28T19:25:54.562Z,10.90
2023-03-28T19:28:21.971Z,11.43
2023-03-28T19:30:48.475Z,11.50
2023-03-28T19:33:14.954Z,10.35
2023-03-28T19:35:42.494Z,8.13
2023-03-28T19:38:08.934Z,10.20
2023-03-28T19:40:35.452Z,6.90
2023-03-28T19:43:02.233Z,8.98
2023-03-28T19:45:28.659Z,7.55
2023-03-28T19:47:56.159Z,7.15
2023-03-28T19:50:22.912Z,8.45
2023-03-28T19:52:49.365Z,11.68
2023-03-28T19:55:15.882Z,9.43
2023-03-28T19:57:42.347Z,8.90
2023-03-28T20:00:09.543Z,11.75
2023-03-28T20:02:37.639Z,9.25
2023-03-28T20:05:04.109Z,9.27
2023-03-28T20:07:30.569Z,11.35
2023-03-28T20:09:57.152Z,9.30
2023-03-28T20:12:23.639Z,9.52
2023-03-28T20:14:50.086Z,10.38
2023-03-28T20:17:16.525Z,10.32
2023-03-28T20:19:43.104Z,9.07
2023-03-28T20:22:09.534Z,7.50
2023-03-28T20:24:36.202Z,11.00
2023-03-28T20:27:02.612Z,9.63
2023-03-28T20:29:29.668Z,8.93
2023-03-28T20:31:56.383Z,9.57
2023-03-28T20:34:22.963Z,6.87
2023-03-28T20:36:49.949Z,8.02
2023-03-28T20:39:16.993Z,13.00
2023-03-28T20:41:43.816Z,9.70
2023-03-28T20:44:10.333Z,13.48
2023-03-28T20:46:38.309Z,10.05
2023-03-28T20:49:06.394Z,9.68
2023-03-28T20:51:32.854Z,9.73
2023-03-28T20:53:59.294Z,12.90
2023-03-28T20:56:27.528Z,11.80
2023-03-28T20:58:53.974Z,10.52
2023-03-28T21:01:21.777Z,10.93
2023-03-28T21:03:53.671Z,8.27
2023-03-28T21:06:20.585Z,10.70
2023-03-28T21:08:47.368Z,10.90
2023-03-28T21:11:13.838Z,9.43
2023-03-28T21:13:40.288Z,9.82
2023-03-28T21:16:06.764Z,10.43
2023-03-28T21:18:35.131Z,11.10
2023-03-28T21:21:01.779Z,8.90
2023-03-28T21:23:28.321Z,9.38
2023-03-28T21:25:54.756Z,8.27
2023-03-28T21:28:21.180Z,9.13
2023-03-28T21:30:47.580Z,10.20
2023-03-28T21:33:15.564Z,8.23
2023-03-28T21:35:41.991Z,8.20
2023-03-28T21:38:08.457Z,11.05
2023-03-28T21:40:34.872Z,11.68
2023-03-28T21:43:01.569Z,7.97
2023-03-28T21:45:28.010Z,11.25
2023-03-28T21:47:54.630Z,8.82
2023-03-28T21:50:21.085Z,12.73
2023-03-28T21:52:47.514Z,7.90
2023-03-28T21:55:13.989Z,10.25
2023-03-28T21:57:40.450Z,11.07
2023-03-28T22:00:15.150Z,8.68
2023-03-28T22:02:42.074Z,7.80
2023-03-28T22:05:15.813Z,8.65
2023-03-28T22:07:53.057Z,7.10
2023-03-28T22:10:19.469Z,12.05
2023-03-28T22:12:46.778Z,6.93
2023-03-28T22:15:16.218Z,8.85
2023-03-28T22:17:42.678Z,9.27
2023-03-28T22:20:09.165Z,10.68
2023-03-28T22:22:36.593Z,10.38
2023-03-28T22:25:03.391Z,9.77
2023-03-28T22:27:30.470Z,9.15
2023-03-28T22:29:57.072Z,9.30
2023-03-28T22:32:23.513Z,8.07
2023-03-28T22:34:51.269Z,7.40
2023-03-28T22:37:17.732Z,8.13
2023-03-28T22:39:44.197Z,10.85
2023-03-28T22:42:11.974Z,7.65
2023-03-28T22:44:38.441Z,12.60
2023-03-28T22:47:04.959Z,6.22
2023-03-28T22:49:31.581Z,10.88
2023-03-28T22:52:02.127Z,6.80
2023-03-28T22:54:28.614Z,9.93
2023-03-28T22:56:55.065Z,9.43
2023-03-28T22:59:22.007Z,7.60
2023-03-28T23:01:48.508Z,5.00
2023-03-28T23:04:14.930Z,7.75
2023-03-28T23:06:41.775Z,7.53
2023-03-28T23:09:12.944Z,5.22
2023-03-28T23:11:39.347Z,8.48
2023-03-28T23:14:05.852Z,6.15
2023-03-28T23:16:33.212Z,5.60
2023-03-28T23:18:59.710Z,7.50
2023-03-28T23:21:26.230Z,7.37
2023-03-28T23:23:52.682Z,6.50
2023-03-28T23:26:19.211Z,6.70
2023-03-28T23:28:45.901Z,5.40
2023-03-28T23:31:12.402Z,7.68
2023-03-28T23:33:38.883Z,5.65
2023-03-28T23:36:05.392Z,9.00
2023-03-28T23:38:32.928Z,6.78
2023-03-28T23:40:59.555Z,7.12
2023-03-28T23:43:26.430Z,8.75
2023-03-28T23:45:52.927Z,7.07
2023-03-28T23:48:19.335Z,6.25
2023-03-28T23:50:45.774Z,6.00
2023-03-28T23:53:12.240Z,5.45
2023-03-28T23:55:38.691Z,6.10
2023-03-28T23:58:05.143Z,5.25
